createdAt,value
2023-04-16T00:00:37.267Z,2.00
2023-04-16T00:03:03.793Z,1.60
2023-04-16T00:05:30.624Z,1.70
2023-04-16T00:07:56.971Z,1.53
2023-04-16T00:10:23.550Z,2.03
2023-04-16T00:12:49.916Z,1.93
2023-04-16T00:15:16.354Z,1.80
2023-04-16T00:17:42.734Z,1.93
2023-04-16T00:20:09.398Z,1.90
2023-04-16T00:22:35.830Z,1.90
2023-04-16T00:25:02.320Z,1.87
2023-04-16T00:27:28.808Z,1.67
2023-04-16T00:29:55.400Z,1.70
2023-04-16T00:32:21.870Z,1.70
2023-04-16T00:34:48.306Z,1.63
2023-04-16T00:37:14.775Z,1.70
2023-04-16T00:39:41.147Z,2.10
2023-04-16T00:42:07.711Z,2.07
2023-04-16T00:44:36.018Z,1.90
2023-04-16T00:47:03.172Z,1.80
2023-04-16T00:49:29.804Z,1.70
2023-04-16T00:51:56.405Z,1.73
2023-04-16T00:54:24.602Z,1.50
2023-04-16T00:56:51.250Z,1.88
2023-04-16T00:59:17.951Z,1.90
2023-04-16T01:01:44.533Z,1.77
2023-04-16T01:04:11.133Z,1.92
2023-04-16T01:06:37.531Z,1.75
2023-04-16T01:09:03.992Z,1.70
2023-04-16T01:11:30.441Z,1.50
2023-04-16T01:13:56.788Z,1.60
2023-04-16T01:16:23.313Z,1.77
2023-04-16T01:18:49.749Z,1.90
2023-04-16T01:21:16.092Z,1.80
2023-04-16T01:23:42.597Z,1.38
2023-04-16T01:26:09.131Z,1.60
2023-04-16T01:28:36.006Z,1.70
2023-04-16T01:31:02.439Z,1.65
2023-04-16T01:33:28.812Z,1.60
2023-04-16T01:35:55.229Z,1.50
2023-04-16T01:38:21.909Z,1.70
2023-04-16T01:40:48.318Z,1.40
2023-04-16T01:43:14.710Z,1.90
2023-04-16T01:45:41.176Z,2.10
2023-04-16T01:48:08.332Z,2.40
2023-04-16T01:50:34.736Z,2.23
2023-04-16T01:53:02.213Z,1.90
2023-04-16T01:55:28.680Z,1.97
2023-04-16T01:57:55.060Z,2.60
2023-04-16T02:00:21.460Z,2.10
2023-04-16T02:02:49.389Z,2.30
2023-04-16T02:05:16.052Z,2.20
2023-04-16T02:07:42.570Z,2.20
2023-04-16T02:10:10.280Z,1.95
2023-04-16T02:12:36.663Z,1.93
2023-04-16T02:15:03.341Z,2.08
2023-04-16T02:17:29.787Z,2.00
2023-04-16T02:19:56.238Z,2.20
2023-04-16T02:22:22.749Z,2.47
2023-04-16T02:24:50.621Z,2.67
2023-04-16T02:27:17.019Z,2.80
2023-04-16T02:29:43.510Z,2.60
2023-04-16T02:32:09.928Z,3.03
2023-04-16T02:34:36.424Z,2.43
2023-04-16T02:37:03.084Z,2.33
2023-04-16T02:39:29.455Z,2.47
2023-04-16T02:41:56.112Z,2.83
2023-04-16T02:44:23.873Z,3.00
2023-04-16T02:46:50.272Z,2.57
2023-04-16T02:49:16.705Z,3.50
2023-04-16T02:51:43.165Z,3.67
2023-04-16T02:54:09.609Z,2.97
2023-04-16T02:56:36.065Z,2.63
2023-04-16T02:59:02.460Z,2.57
2023-04-16T03:01:29.038Z,2.70
2023-04-16T03:03:55.612Z,2.97
2023-04-16T03:06:22.046Z,3.30
2023-04-16T03:08:48.390Z,2.73
2023-04-16T03:11:14.737Z,2.50
2023-04-16T03:13:41.145Z,2.90
2023-04-16T03:16:07.691Z,3.30
2023-04-16T03:18:34.248Z,3.63
2023-04-16T03:21:00.691Z,3.40
2023-04-16T03:23:28.110Z,2.80
2023-04-16T03:25:54.470Z,2.78
2023-04-16T03:28:20.816Z,3.00
2023-04-16T03:30:53.652Z,3.17
2023-04-16T03:33:20.802Z,4.07
2023-04-16T03:35:47.335Z,4.30
2023-04-16T03:38:13.692Z,4.67
2023-04-16T03:40:40.028Z,4.50
2023-04-16T03:43:06.616Z,3.93
2023-04-16T03:45:33.078Z,3.50
2023-04-16T03:47:59.525Z,3.45
2023-04-16T03:50:26.098Z,5.28
2023-04-16T03:52:52.471Z,5.60
2023-04-16T03:55:18.848Z,5.77
2023-04-16T03:57:45.215Z,5.67
2023-04-16T04:00:11.901Z,5.57
2023-04-16T04:02:38.402Z,5.83
2023-04-16T04:05:05.112Z,5.50
2023-04-16T04:07:31.633Z,4.97
2023-04-16T04:09:58.019Z,5.30
2023-04-16T04:12:44.489Z,5.07
2023-04-16T04:15:31.373Z,4.97
2023-04-16T04:17:58.065Z,5.77
2023-04-16T04:20:24.471Z,4.90
2023-04-16T04:22:51.080Z,4.83
2023-04-16T04:25:17.640Z,4.50
2023-04-16T04:27:44.105Z,4.43
2023-04-16T04:30:10.792Z,4.23
2023-04-16T04:32:37.220Z,4.63
2023-04-16T04:35:03.868Z,3.95
2023-04-16T04:37:30.432Z,4.70
2023-04-16T04:39:56.841Z,4.60
2023-04-16T04:42:23.394Z,4.67
2023-04-16T04:44:49.740Z,4.77
2023-04-16T04:47:16.396Z,5.07
2023-04-16T04:49:42.828Z,4.90
2023-04-16T04:52:09.300Z,4.83
2023-04-16T04:54:35.976Z,5.40
2023-04-16T04:57:02.494Z,5.43
2023-04-16T04:59:28.857Z,5.60
2023-04-16T05:01:55.482Z,5.33
2023-04-16T05:04:21.984Z,5.00
2023-04-16T05:06:48.373Z,5.40
2023-04-16T05:09:14.753Z,5.20
2023-04-16T05:11:41.810Z,4.90
2023-04-16T05:14:08.354Z,5.47
2023-04-16T05:16:36.173Z,5.23
2023-04-16T05:19:02.543Z,4.90
2023-04-16T05:21:29.047Z,4.47
2023-04-16T05:23:55.640Z,4.67
2023-04-16T05:26:22.838Z,4.00
2023-04-16T05:28:49.157Z,4.60
2023-04-16T05:31:15.583Z,4.70
2023-04-16T05:33:42.014Z,4.13
2023-04-16T05:36:08.385Z,4.63
2023-04-16T05:38:34.783Z,5.03
2023-04-16T05:41:01.139Z,4.10
2023-04-16T05:43:27.552Z,4.70
2023-04-16T05:45:53.972Z,4.70
2023-04-16T05:48:20.661Z,5.10
2023-04-16T05:50:47.045Z,5.03
2023-04-16T05:53:14.258Z,5.23
2023-04-16T05:55:40.735Z,4.67
2023-04-16T05:58:07.120Z,5.63
2023-04-16T06:00:33.492Z,4.40
2023-04-16T06:03:00.150Z,4.10
2023-04-16T06:05:26.936Z,4.40
2023-04-16T06:07:53.451Z,4.10
2023-04-16T06:10:19.830Z,3.90
2023-04-16T06:12:47.295Z,3.67
2023-04-16T06:15:13.800Z,3.50
2023-04-16T06:17:40.291Z,3.80
2023-04-16T06:20:07.106Z,4.07
2023-04-16T06:22:33.522Z,3.67
2023-04-16T06:24:59.881Z,4.33
2023-04-16T06:27:27.106Z,3.90
2023-04-16T06:29:53.540Z,4.10
2023-04-16T06:32:19.982Z,3.83
2023-04-16T06:34:46.483Z,4.53
2023-04-16T06:37:12.886Z,5.00
2023-04-16T06:39:40.644Z,4.53
2023-04-16T06:42:07.075Z,3.70
2023-04-16T06:44:33.532Z,3.60
2023-04-16T06:47:00.050Z,3.97
2023-04-16T06:49:26.537Z,4.33
2023-04-16T06:51:52.960Z,4.13
2023-04-16T06:54:19.836Z,5.20
2023-04-16T06:56:46.178Z,21.90
2023-04-16T06:59:12.644Z,4.87
2023-04-16T07:01:39.098Z,4.30
2023-04-16T07:04:05.747Z,4.40
2023-04-16T07:06:32.522Z,4.70
2023-04-16T07:08:58.961Z,4.33
2023-04-16T07:11:26.494Z,4.90
2023-04-16T07:13:53.878Z,4.90
2023-04-16T07:16:20.553Z,4.10
2023-04-16T07:18:47.072Z,4.67
2023-04-16T07:21:13.503Z,3.80
2023-04-16T07:23:39.881Z,3.20
2023-04-16T07:26:06.441Z,3.70
2023-04-16T07:28:32.970Z,4.00
2023-04-16T07:30:59.689Z,3.70
2023-04-16T07:33:26.207Z,4.20
2023-04-16T07:35:52.715Z,4.17
2023-04-16T07:38:19.206Z,4.30
2023-04-16T07:40:45.946Z,3.80
2023-04-16T07:43:13.601Z,4.20
2023-04-16T07:45:41.340Z,4.15
2023-04-16T07:48:07.963Z,4.28
2023-04-16T07:50:34.368Z,4.13
2023-04-16T07:53:01.150Z,4.18
2023-04-16T07:55:27.532Z,4.20
2023-04-16T07:57:54.056Z,4.50
2023-04-16T08:00:20.455Z,4.87
2023-04-16T08:02:47.068Z,4.88
2023-04-16T08:05:13.651Z,4.57
2023-04-16T08:07:40.074Z,4.43
2023-04-16T08:10:06.813Z,4.43
2023-04-16T08:12:33.457Z,4.40
2023-04-16T08:14:59.972Z,4.73
2023-04-16T08:17:27.120Z,4.73
2023-04-16T08:19:53.556Z,4.57
2023-04-16T08:22:19.949Z,4.37
2023-04-16T08:24:46.403Z,4.53
2023-04-16T08:27:19.323Z,5.10
2023-04-16T08:29:46.450Z,4.88
2023-04-16T08:32:12.864Z,4.40
2023-04-16T08:34:39.385Z,5.40
2023-04-16T08:37:05.798Z,5.75
2023-04-16T08:39:32.259Z,6.00
2023-04-16T08:41:58.995Z,5.63
2023-04-16T08:44:31.062Z,5.75
2023-04-16T08:46:58.908Z,6.32
2023-04-16T08:49:26.005Z,6.45
2023-04-16T08:51:55.905Z,5.00
2023-04-16T08:54:42.394Z,5.10
2023-04-16T08:57:10.673Z,5.10
2023-04-16T08:59:38.055Z,5.05
2023-04-16T09:02:05.726Z,4.55
2023-04-16T09:04:32.422Z,5.07
2023-04-16T09:06:59.149Z,6.18
2023-04-16T09:09:26.639Z,4.95
2023-04-16T09:11:53.655Z,6.60
2023-04-16T09:14:20.223Z,5.22
2023-04-16T09:16:49.749Z,4.95
2023-04-16T09:19:16.183Z,4.90
2023-04-16T09:21:45.582Z,5.03
2023-04-16T09:24:12.462Z,4.63
2023-04-16T09:26:38.975Z,4.50
2023-04-16T09:29:05.370Z,4.95
2023-04-16T09:31:31.928Z,5.28
2023-04-16T09:34:08.442Z,5.05
2023-04-16T09:36:35.653Z,5.22
2023-04-16T09:39:02.602Z,5.53
2023-04-16T09:41:30.100Z,5.28
2023-04-16T09:43:56.959Z,4.82
2023-04-16T09:46:43.630Z,5.13
2023-04-16T09:49:11.049Z,4.72
2023-04-16T09:51:38.345Z,4.78
2023-04-16T09:54:05.138Z,5.40
2023-04-16T09:56:31.542Z,4.80
2023-04-16T09:59:00.313Z,4.57
2023-04-16T10:01:26.744Z,4.93
2023-04-16T10:03:54.169Z,5.00
2023-04-16T10:06:21.960Z,5.78
2023-04-16T10:08:50.255Z,5.32
2023-04-16T10:11:17.726Z,5.10
2023-04-16T10:13:44.320Z,5.15
2023-04-16T10:16:11.289Z,5.35
2023-04-16T10:18:41.857Z,5.22
2023-04-16T10:21:08.848Z,5.65
2023-04-16T10:23:35.469Z,5.07
2023-04-16T10:26:02.283Z,5.40
2023-04-16T10:28:29.404Z,5.90
2023-04-16T10:30:57.114Z,5.30
2023-04-16T10:33:27.181Z,5.88
2023-04-16T10:36:07.840Z,5.57
2023-04-16T10:38:35.408Z,5.20
2023-04-16T10:41:03.212Z,5.47
2023-04-16T10:43:49.037Z,5.38
2023-04-16T10:46:19.489Z,5.53
2023-04-16T10:48:50.357Z,5.30
2023-04-16T10:51:36.007Z,5.40
2023-04-16T10:54:08.125Z,6.35
2023-04-16T10:56:35.352Z,5.80
2023-04-16T10:59:04.708Z,6.03
2023-04-16T11:01:32.468Z,6.30
2023-04-16T11:04:00.901Z,6.15
2023-04-16T11:06:27.957Z,6.07
2023-04-16T11:08:55.292Z,5.88
2023-04-16T11:11:22.757Z,6.57
2023-04-16T11:13:49.307Z,5.72
2023-04-16T11:16:16.588Z,5.90
2023-04-16T11:18:51.692Z,6.30
2023-04-16T11:21:19.453Z,6.30
2023-04-16T11:23:53.730Z,6.15
2023-04-16T11:26:30.767Z,6.20
2023-04-16T11:28:57.346Z,6.22
2023-04-16T11:31:24.251Z,6.35
2023-04-16T11:33:50.819Z,6.43
2023-04-16T11:36:17.300Z,5.80
2023-04-16T11:38:43.883Z,6.47
2023-04-16T11:41:11.052Z,6.78
2023-04-16T11:43:37.546Z,5.45
2023-04-16T11:46:12.837Z,6.00
2023-04-16T11:49:01.107Z,5.40
2023-04-16T11:51:27.493Z,5.85
2023-04-16T11:53:54.292Z,6.30
2023-04-16T11:56:30.686Z,6.20
2023-04-16T11:59:10.728Z,6.32
2023-04-16T12:01:38.073Z,6.00
2023-04-16T12:04:04.909Z,6.63
2023-04-16T12:06:34.303Z,5.68
2023-04-16T12:09:00.965Z,7.00
2023-04-16T12:11:42.631Z,6.22
2023-04-16T12:14:09.018Z,6.38
2023-04-16T12:16:35.952Z,6.82
2023-04-16T12:19:04.053Z,6.50
2023-04-16T12:21:40.067Z,6.60
2023-04-16T12:24:07.119Z,6.70
2023-04-16T12:26:39.007Z,6.95
2023-04-16T12:29:34.452Z,6.85
2023-04-16T12:32:02.131Z,6.55
2023-04-16T12:34:34.665Z,6.80
2023-04-16T12:37:15.377Z,7.22
2023-04-16T12:39:42.223Z,7.25
2023-04-16T12:42:11.223Z,7.88
2023-04-16T12:44:38.056Z,7.38
2023-04-16T12:47:05.598Z,7.20
2023-04-16T12:49:32.128Z,10.93
2023-04-16T12:51:58.582Z,8.07
2023-04-16T12:54:28.840Z,7.57
2023-04-16T12:56:55.257Z,8.87
2023-04-16T12:59:21.685Z,9.32
2023-04-16T13:01:48.146Z,9.48
2023-04-16T13:04:14.648Z,9.18
2023-04-16T13:06:41.149Z,9.52
2023-04-16T13:09:07.859Z,9.77
2023-04-16T13:11:34.340Z,9.48
2023-04-16T13:14:00.789Z,10.30
2023-04-16T13:16:27.434Z,9.35
2023-04-16T13:18:53.843Z,8.55
2023-04-16T13:21:20.334Z,8.25
2023-04-16T13:23:46.713Z,8.70
2023-04-16T13:26:15.401Z,8.88
2023-04-16T13:28:41.796Z,8.90
2023-04-16T13:31:08.490Z,9.20
2023-04-16T13:33:34.976Z,9.05
2023-04-16T13:36:01.379Z,8.55
2023-04-16T13:38:27.809Z,8.38
2023-04-16T13:40:54.307Z,8.10
2023-04-16T13:43:22.373Z,7.97
2023-04-16T13:45:48.745Z,8.35
2023-04-16T13:48:15.518Z,8.15
2023-04-16T13:50:41.991Z,9.00
2023-04-16T13:53:08.555Z,8.98
2023-04-16T13:55:35.562Z,8.52
2023-04-16T13:58:02.721Z,9.00
2023-04-16T14:00:29.305Z,7.88
2023-04-16T14:02:55.936Z,9.40
2023-04-16T14:05:25.181Z,9.73
2023-04-16T14:07:53.165Z,10.02
2023-04-16T14:10:19.686Z,10.18
2023-04-16T14:12:46.415Z,10.20
2023-04-16T14:15:14.785Z,9.45
2023-04-16T14:17:42.766Z,9.00
2023-04-16T14:20:10.389Z,10.00
2023-04-16T14:22:36.943Z,9.75
2023-04-16T14:25:03.752Z,9.18
2023-04-16T14:27:30.293Z,9.93
2023-04-16T14:29:56.904Z,9.23
2023-04-16T14:32:23.286Z,9.35
2023-04-16T14:34:49.745Z,10.20
2023-04-16T14:37:17.411Z,9.68
2023-04-16T14:39:43.951Z,9.77
2023-04-16T14:42:11.102Z,10.18
2023-04-16T14:44:37.569Z,10.88
2023-04-16T14:47:03.978Z,10.80
2023-04-16T14:49:30.409Z,10.00
2023-04-16T14:51:56.992Z,11.40
2023-04-16T14:54:23.455Z,10.90
2023-04-16T14:56:50.365Z,10.73
2023-04-16T14:59:16.794Z,10.48
2023-04-16T15:01:43.346Z,10.60
2023-04-16T15:04:10.141Z,10.73
2023-04-16T15:06:36.694Z,10.50
2023-04-16T15:09:04.019Z,10.80
2023-04-16T15:11:30.481Z,10.65
2023-04-16T15:13:57.162Z,10.82
2023-04-16T15:16:23.634Z,10.63
2023-04-16T15:18:50.461Z,10.50
2023-04-16T15:21:16.932Z,9.73
2023-04-16T15:23:43.467Z,10.02
2023-04-16T15:26:10.047Z,9.18
2023-04-16T15:28:36.436Z,10.52
2023-04-16T15:31:02.859Z,9.75
2023-04-16T15:33:29.425Z,10.57
2023-04-16T15:35:55.890Z,11.38
2023-04-16T15:38:22.350Z,11.77
2023-04-16T15:40:50.349Z,10.02
2023-04-16T15:43:16.753Z,11.10
2023-04-16T15:45:43.117Z,9.70
2023-04-16T15:48:09.486Z,10.18
2023-04-16T15:50:36.353Z,10.43
2023-04-16T15:53:03.126Z,9.10
2023-04-16T15:55:29.575Z,10.07
2023-04-16T15:57:55.943Z,10.48
2023-04-16T16:00:22.617Z,10.05
2023-04-16T16:02:49.163Z,9.57
2023-04-16T16:05:15.857Z,10.90
2023-04-16T16:07:42.888Z,10.27
2023-04-16T16:10:10.038Z,11.02
2023-04-16T16:12:37.431Z,10.65
2023-04-16T16:15:04.653Z,10.45
2023-04-16T16:17:31.086Z,11.52
2023-04-16T16:19:58.327Z,12.15
2023-04-16T16:22:25.171Z,10.98
2023-04-16T16:24:51.798Z,11.80
2023-04-16T16:27:18.866Z,12.48
2023-04-16T16:29:45.486Z,12.38
2023-04-16T16:32:11.982Z,10.90
2023-04-16T16:34:38.468Z,11.13
2023-04-16T16:37:05.627Z,10.48
2023-04-16T16:39:32.592Z,10.75
2023-04-16T16:41:58.921Z,10.10
2023-04-16T16:44:26.191Z,9.35
2023-04-16T16:46:52.916Z,8.07
2023-04-16T16:49:19.423Z,9.70
2023-04-16T16:51:46.754Z,8.23
2023-04-16T16:54:13.352Z,10.90
2023-04-16T16:56:40.139Z,7.40
2023-04-16T16:59:07.720Z,7.28
2023-04-16T17:01:34.586Z,7.32
2023-04-16T17:04:01.155Z,6.95
2023-04-16T17:06:27.865Z,6.90
2023-04-16T17:08:54.409Z,6.95
2023-04-16T17:11:20.913Z,6.75
2023-04-16T17:13:47.337Z,6.93
2023-04-16T17:16:15.455Z,8.15
2023-04-16T17:18:42.123Z,8.45
2023-04-16T17:21:08.767Z,9.95
2023-04-16T17:23:35.413Z,8.45
2023-04-16T17:26:01.789Z,9.10
2023-04-16T17:28:28.179Z,6.93
2023-04-16T17:30:56.132Z,7.28
2023-04-16T17:33:22.801Z,6.22
2023-04-16T17:35:49.208Z,6.20
2023-04-16T17:38:15.906Z,7.57
2023-04-16T17:40:42.362Z,8.18
2023-04-16T17:43:08.782Z,9.07
2023-04-16T17:45:35.251Z,9.52
2023-04-16T17:48:01.941Z,9.70
2023-04-16T17:50:28.586Z,9.35
2023-04-16T17:52:54.944Z,9.38
2023-04-16T17:55:21.496Z,9.27
2023-04-16T17:57:47.918Z,9.48
2023-04-16T18:00:14.497Z,8.00
2023-04-16T18:02:41.524Z,8.30
2023-04-16T18:05:08.770Z,8.02
2023-04-16T18:07:35.782Z,11.43
2023-04-16T18:10:02.160Z,9.63
2023-04-16T18:12:28.522Z,8.35
2023-04-16T18:14:54.896Z,8.35
2023-04-16T18:17:24.579Z,9.45
2023-04-16T18:19:51.432Z,9.07
2023-04-16T18:22:17.803Z,9.38
2023-04-16T18:24:44.156Z,10.15
2023-04-16T18:27:10.572Z,16.27
2023-04-16T18:29:38.922Z,9.27
2023-04-16T18:32:06.638Z,9.77
2023-04-16T18:34:33.157Z,18.42
2023-04-16T18:36:59.551Z,9.88
2023-04-16T18:39:26.029Z,11.02
2023-04-16T18:41:52.471Z,11.63
2023-04-16T18:44:19.734Z,10.02
2023-04-16T18:46:46.594Z,10.48
2023-04-16T18:49:13.516Z,10.50
2023-04-16T18:51:41.885Z,10.68
2023-04-16T18:54:08.284Z,9.80
2023-04-16T18:56:34.656Z,10.00
2023-04-16T18:59:01.252Z,10.85
2023-04-16T19:01:27.749Z,11.00
2023-04-16T19:03:54.545Z,11.15
2023-04-16T19:06:20.941Z,12.43
2023-04-16T19:08:47.313Z,10.35
2023-04-16T19:11:13.741Z,10.30
2023-04-16T19:13:40.173Z,9.23
2023-04-16T19:16:11.520Z,12.90
2023-04-16T19:18:38.575Z,12.02
2023-04-16T19:21:06.852Z,11.57
2023-04-16T19:23:33.270Z,11.27
2023-04-16T19:26:01.355Z,10.68
2023-04-16T19:28:28.275Z,11.60
2023-04-16T19:30:54.709Z,11.43
2023-04-16T19:33:21.433Z,10.80
2023-04-16T19:35:47.836Z,11.32
2023-04-16T19:38:14.409Z,11.05
2023-04-16T19:40:43.459Z,11.52
2023-04-16T19:43:09.813Z,10.82
2023-04-16T19:45:36.303Z,10.82
2023-04-16T19:48:02.825Z,10.90
2023-04-16T19:50:29.238Z,10.65
2023-04-16T19:52:55.844Z,11.45
2023-04-16T19:55:22.736Z,11.88
2023-04-16T19:57:49.278Z,11.35
2023-04-16T20:00:15.942Z,10.93
2023-04-16T20:02:42.452Z,11.43
2023-04-16T20:05:09.298Z,10.65
2023-04-16T20:07:35.928Z,11.23
2023-04-16T20:10:02.989Z,11.77
2023-04-16T20:12:29.461Z,11.82
2023-04-16T20:14:55.958Z,11.63
2023-04-16T20:17:22.698Z,11.00
2023-04-16T20:19:51.294Z,12.35
2023-04-16T20:22:18.622Z,12.20
2023-04-16T20:24:47.949Z,12.52
2023-04-16T20:27:15.101Z,12.63
2023-04-16T20:29:41.724Z,12.00
2023-04-16T20:32:08.245Z,12.27
2023-04-16T20:34:34.636Z,11.52
2023-04-16T20:37:01.046Z,12.38
2023-04-16T20:39:27.659Z,11.23
2023-04-16T20:41:57.019Z,11.98
2023-04-16T20:44:25.990Z,12.15
2023-04-16T20:46:54.807Z,12.88
2023-04-16T20:49:21.338Z,11.90
2023-04-16T20:51:47.767Z,12.10
2023-04-16T20:54:14.205Z,12.25
2023-04-16T20:56:40.781Z,12.45
2023-04-16T20:59:07.328Z,11.68
2023-04-16T21:01:34.108Z,11.88
2023-04-16T21:04:00.892Z,12.07
2023-04-16T21:06:27.476Z,13.05
2023-04-16T21:08:53.888Z,13.35
2023-04-16T21:11:20.721Z,13.60
2023-04-16T21:13:47.151Z,12.95
2023-04-16T21:16:13.693Z,13.07
2023-04-16T21:18:40.308Z,13.20
2023-04-16T21:21:06.716Z,12.40
2023-04-16T21:23:33.147Z,11.93
2023-04-16T21:25:59.523Z,12.23
2023-04-16T21:28:25.958Z,11.32
2023-04-16T21:30:52.584Z,11.77
2023-04-16T21:33:18.962Z,11.93
2023-04-16T21:35:50.289Z,13.10
2023-04-16T21:38:16.693Z,12.43
2023-04-16T21:40:43.038Z,13.30
2023-04-16T21:43:09.461Z,12.63
2023-04-16T21:45:35.905Z,12.65
2023-04-16T21:48:02.461Z,13.15
2023-04-16T21:50:28.899Z,12.45
2023-04-16T21:52:55.249Z,13.10
2023-04-16T21:55:21.650Z,12.00
2023-04-16T21:57:48.178Z,11.70
2023-04-16T22:00:14.833Z,12.57
2023-04-16T22:02:41.919Z,12.35
2023-04-16T22:05:09.105Z,12.43
2023-04-16T22:07:36.812Z,13.20
2023-04-16T22:10:04.108Z,13.27
2023-04-16T22:12:30.949Z,13.25
2023-04-16T22:15:02.358Z,14.40
2023-04-16T22:17:30.162Z,13.95
2023-04-16T22:19:57.301Z,13.25
2023-04-16T22:22:23.669Z,11.95
2023-04-16T22:24:50.269Z,12.70
2023-04-16T22:27:16.818Z,12.23
2023-04-16T22:29:43.401Z,12.40
2023-04-16T22:32:09.879Z,13.27
2023-04-16T22:34:36.608Z,14.02
2023-04-16T22:37:03.112Z,13.65
2023-04-16T22:39:30.834Z,12.35
2023-04-16T22:41:57.397Z,11.30
2023-04-16T22:44:23.766Z,11.52
2023-04-16T22:46:50.132Z,12.10
2023-04-16T22:49:16.559Z,12.88
2023-04-16T22:51:43.368Z,12.63
2023-04-16T22:54:13.274Z,12.63
2023-04-16T22:56:40.745Z,12.52
2023-04-16T22:59:07.225Z,13.85
2023-04-16T23:01:34.181Z,12.75
2023-04-16T23:04:00.951Z,12.88
2023-04-16T23:06:27.568Z,13.07
2023-04-16T23:08:54.115Z,11.70
2023-04-16T23:11:20.789Z,12.20
2023-04-16T23:13:47.200Z,13.70
2023-04-16T23:16:13.662Z,12.02
2023-04-16T23:18:40.217Z,11.30
2023-04-16T23:21:06.601Z,11.13
2023-04-16T23:23:33.380Z,10.48
2023-04-16T23:26:00.943Z,10.32
2023-04-16T23:28:27.362Z,10.15
2023-04-16T23:30:53.842Z,10.35
2023-04-16T23:33:20.368Z,10.77
2023-04-16T23:35:47.338Z,11.88
2023-04-16T23:38:13.842Z,11.52
2023-04-16T23:40:40.331Z,12.18
2023-04-16T23:43:06.707Z,12.55
2023-04-16T23:45:33.124Z,11.93
2023-04-16T23:47:59.705Z,12.20
2023-04-16T23:50:26.194Z,12.35
2023-04-16T23:52:52.645Z,14.40
2023-04-16T23:55:19.126Z,14.27
2023-04-16T23:57:45.519Z,14.57
